Wichita Falls, Texas
Current Conditions -  °F | °C
As of 1:15 PM on Friday 28 Nov 2014 (Local Time) from KCWC Reporting Station
Clear Clear  
Wind Chill: 68°   Ceiling: Unl
Heat Index: 68°   Visibility: 10mi
Dew Point: 40°   Wind: 14mph
Humidity: 35%   Direction: 210°SSW
Pressure: 30.02"   Gusts: 23mph
Location:  33.91°N, 98.5°W
Report Text: KCWC 281915Z AUTO 21012G20KT 10SM CLR 20/04 A3002 RMK AO2 T02010043
Loading
Personal Weather Stations






























Interactive Weather Map New forecast layout! Learn more

10-Day Weather Forecast

Advertisements
Track Severe Weather on mobile